createdAt,value
2022-11-08T00:00:00.786Z,65.45
2022-11-08T00:01:00.996Z,65.56
2022-11-08T00:02:01.278Z,65.56
2022-11-08T00:03:01.402Z,65.56
2022-11-08T00:04:01.516Z,65.56
2022-11-08T00:05:01.677Z,65.69
2022-11-08T00:06:01.836Z,65.59
2022-11-08T00:07:02.011Z,65.59
2022-11-08T00:08:02.168Z,65.69
2022-11-08T00:09:02.345Z,65.79
2022-11-08T00:10:02.517Z,65.89
2022-11-08T00:11:02.676Z,65.79
2022-11-08T00:12:02.859Z,66.09
2022-11-08T00:13:03.015Z,66.19
2022-11-08T00:14:03.182Z,66.23
2022-11-08T00:15:03.339Z,66.13
2022-11-08T00:16:03.495Z,66.33
2022-11-08T00:17:03.676Z,66.53
2022-11-08T00:18:03.838Z,66.63
2022-11-08T00:19:03.997Z,66.74
2022-11-08T00:20:04.155Z,66.74
2022-11-08T00:21:04.327Z,66.74
2022-11-08T00:22:04.505Z,66.63
2022-11-08T00:23:04.666Z,66.66
2022-11-08T00:24:04.826Z,66.66
2022-11-08T00:25:04.987Z,66.97
2022-11-08T00:26:05.150Z,67.07
2022-11-08T00:27:05.327Z,67.07
2022-11-08T00:28:05.477Z,67.07
2022-11-08T00:29:05.676Z,67.07
2022-11-08T00:30:05.884Z,67.38
2022-11-08T00:31:06.005Z,67.47
2022-11-08T00:32:06.175Z,67.38
2022-11-08T00:33:06.344Z,67.47
2022-11-08T00:34:06.498Z,67.78
2022-11-08T00:35:06.706Z,67.78
2022-11-08T00:36:06.859Z,67.91
2022-11-08T00:37:07.035Z,67.61
2022-11-08T00:38:07.199Z,68.01
2022-11-08T00:39:07.388Z,67.81
2022-11-08T00:40:07.558Z,68.01
2022-11-08T00:41:07.722Z,68.01
2022-11-08T00:42:07.893Z,67.91
2022-11-08T00:43:08.061Z,67.81
2022-11-08T00:44:08.215Z,67.81
2022-11-08T00:45:08.365Z,67.71
2022-11-08T00:46:08.526Z,67.61
2022-11-08T00:47:08.706Z,68.01
2022-11-08T00:48:08.877Z,68.12
2022-11-08T00:49:09.037Z,68.22
2022-11-08T00:50:09.196Z,68.22
2022-11-08T00:51:09.360Z,68.22
2022-11-08T00:52:09.533Z,68.12
2022-11-08T00:53:09.696Z,68.22
2022-11-08T00:54:09.856Z,68.12
2022-11-08T00:55:10.029Z,68.22
2022-11-08T00:56:10.186Z,68.01
2022-11-08T00:57:10.366Z,68.12
2022-11-08T00:58:10.524Z,68.32
2022-11-08T00:59:10.716Z,68.22
2022-11-08T01:00:10.876Z,68.22
2022-11-08T01:01:11.179Z,68.22
2022-11-08T01:02:11.314Z,68.22
2022-11-08T01:03:11.426Z,68.52
2022-11-08T01:04:11.586Z,68.52
2022-11-08T01:05:11.747Z,68.62
2022-11-08T01:06:11.905Z,68.83
2022-11-08T01:07:12.088Z,68.73
2022-11-08T01:08:12.245Z,68.73
2022-11-08T01:09:12.405Z,68.73
2022-11-08T01:10:12.567Z,68.96
2022-11-08T01:11:12.726Z,68.86
2022-11-08T01:12:12.896Z,68.86
2022-11-08T01:13:13.063Z,68.86
2022-11-08T01:14:13.217Z,68.93
2022-11-08T01:15:13.422Z,68.96
2022-11-08T01:16:13.536Z,69.03
2022-11-08T01:17:13.716Z,68.83
2022-11-08T01:18:13.887Z,69.03
2022-11-08T01:19:14.039Z,68.93
2022-11-08T01:20:14.280Z,68.96
2022-11-08T01:21:14.383Z,68.73
2022-11-08T01:22:14.555Z,68.93
2022-11-08T01:23:14.719Z,68.93
2022-11-08T01:24:14.875Z,68.93
2022-11-08T01:25:15.035Z,68.73
2022-11-08T01:26:15.194Z,68.73
2022-11-08T01:27:15.407Z,68.93
2022-11-08T01:28:15.979Z,68.96
2022-11-08T01:29:15.734Z,69.06
2022-11-08T01:30:15.886Z,68.96
2022-11-08T01:31:16.083Z,68.96
2022-11-08T01:32:16.246Z,68.96
2022-11-08T01:33:16.429Z,68.96
2022-11-08T01:34:16.576Z,69.06
2022-11-08T01:35:16.784Z,69.06
2022-11-08T01:36:16.935Z,68.96
2022-11-08T01:37:17.143Z,68.86
2022-11-08T01:38:17.556Z,69.06
2022-11-08T01:39:17.475Z,69.06
2022-11-08T01:40:17.625Z,69.17
2022-11-08T01:41:17.826Z,69.37
2022-11-08T01:42:17.985Z,69.26
2022-11-08T01:43:18.155Z,69.37
2022-11-08T01:44:18.315Z,69.26
2022-11-08T01:45:18.485Z,69.37
2022-11-08T01:46:18.645Z,69.47
2022-11-08T01:47:18.822Z,69.47
2022-11-08T01:48:19.445Z,69.37
2022-11-08T01:49:19.195Z,69.37
2022-11-08T01:50:19.357Z,69.26
2022-11-08T01:51:19.528Z,69.26
2022-11-08T01:52:19.698Z,69.37
2022-11-08T01:53:19.854Z,69.17
2022-11-08T01:54:20.019Z,69.17
2022-11-08T01:55:20.194Z,69.17
2022-11-08T01:56:20.338Z,69.17
2022-11-08T01:57:20.504Z,69.13
2022-11-08T01:58:20.814Z,69.03
2022-11-08T01:59:20.866Z,69.03
2022-11-08T02:00:21.026Z,69.17
2022-11-08T02:01:21.271Z,68.96
2022-11-08T02:02:21.478Z,68.96
2022-11-08T02:03:21.533Z,68.96
2022-11-08T02:04:21.697Z,69.17
2022-11-08T02:05:21.845Z,69.17
2022-11-08T02:06:22.011Z,68.86
2022-11-08T02:07:22.185Z,69.06
2022-11-08T02:08:22.335Z,68.96
2022-11-08T02:09:22.535Z,69.06
2022-11-08T02:10:22.694Z,68.96
2022-11-08T02:11:22.856Z,69.17
2022-11-08T02:12:23.037Z,69.06
2022-11-08T02:13:23.192Z,69.06
2022-11-08T02:14:23.344Z,69.06
2022-11-08T02:15:23.543Z,69.06
2022-11-08T02:16:23.695Z,69.17
2022-11-08T02:17:23.865Z,69.17
2022-11-08T02:18:24.024Z,69.17
2022-11-08T02:19:24.215Z,69.26
2022-11-08T02:20:24.397Z,69.37
2022-11-08T02:21:24.565Z,69.37
2022-11-08T02:22:24.739Z,69.57
2022-11-08T02:23:24.902Z,69.37
2022-11-08T02:24:25.055Z,69.67
2022-11-08T02:25:25.224Z,69.57
2022-11-08T02:26:25.375Z,69.67
2022-11-08T02:27:25.555Z,69.67
2022-11-08T02:28:25.705Z,69.57
2022-11-08T02:29:25.906Z,69.57
2022-11-08T02:30:26.065Z,69.57
2022-11-08T02:31:26.225Z,69.78
2022-11-08T02:32:26.404Z,69.67
2022-11-08T02:33:26.564Z,69.67
2022-11-08T02:34:26.725Z,69.78
2022-11-08T02:35:26.887Z,69.67
2022-11-08T02:36:27.044Z,69.67
2022-11-08T02:37:27.224Z,69.67
2022-11-08T02:38:27.428Z,69.57
2022-11-08T02:39:27.600Z,69.47
2022-11-08T02:40:27.761Z,69.57
2022-11-08T02:41:27.913Z,69.47
2022-11-08T02:42:28.084Z,69.67
2022-11-08T02:43:28.244Z,69.87
2022-11-08T02:44:28.403Z,69.87
2022-11-08T02:45:28.576Z,70.08
2022-11-08T02:46:28.727Z,70.08
2022-11-08T02:47:28.934Z,70.08
2022-11-08T02:48:29.095Z,70.08
2022-11-08T02:49:29.273Z,70.18
2022-11-08T02:50:29.428Z,69.87
2022-11-08T02:51:29.586Z,69.87
2022-11-08T02:52:29.764Z,69.87
2022-11-08T02:53:29.927Z,69.98
2022-11-08T02:54:30.084Z,70.08
2022-11-08T02:55:30.245Z,70.08
2022-11-08T02:56:30.404Z,70.18
2022-11-08T02:57:30.584Z,70.28
2022-11-08T02:58:30.736Z,70.18
2022-11-08T02:59:30.937Z,70.08
2022-11-08T03:00:31.095Z,70.18
2022-11-08T03:01:31.410Z,70.04
2022-11-08T03:02:31.527Z,70.04
2022-11-08T03:03:31.616Z,69.95
2022-11-08T03:04:31.805Z,69.84
2022-11-08T03:05:31.967Z,69.74
2022-11-08T03:06:32.163Z,69.74
2022-11-08T03:07:32.345Z,69.54
2022-11-08T03:08:32.521Z,69.54
2022-11-08T03:09:32.673Z,69.30
2022-11-08T03:10:32.872Z,69.20
2022-11-08T03:11:33.023Z,69.10
2022-11-08T03:12:33.319Z,69.00
2022-11-08T03:13:33.376Z,68.70
2022-11-08T03:14:33.572Z,68.59
2022-11-08T03:15:33.758Z,68.59
2022-11-08T03:16:33.913Z,68.49
2022-11-08T03:17:34.096Z,68.29
2022-11-08T03:18:34.243Z,68.39
2022-11-08T03:19:34.403Z,68.39
2022-11-08T03:20:34.583Z,68.49
2022-11-08T03:21:34.732Z,68.52
2022-11-08T03:22:34.934Z,68.49
2022-11-08T03:23:35.043Z,68.42
2022-11-08T03:24:35.303Z,68.62
2022-11-08T03:25:35.416Z,68.62
2022-11-08T03:26:35.615Z,68.83
2022-11-08T03:27:35.783Z,68.83
2022-11-08T03:28:35.956Z,68.73
2022-11-08T03:29:36.103Z,68.93
2022-11-08T03:30:36.277Z,68.93
2022-11-08T03:31:36.423Z,69.03
2022-11-08T03:32:36.694Z,69.13
2022-11-08T03:33:36.794Z,69.26
2022-11-08T03:34:36.952Z,69.57
2022-11-08T03:35:37.113Z,69.47
2022-11-08T03:36:37.299Z,69.57
2022-11-08T03:37:37.463Z,69.67
2022-11-08T03:38:37.603Z,69.98
2022-11-08T03:39:37.773Z,70.08
2022-11-08T03:40:37.939Z,70.21
2022-11-08T03:41:38.094Z,70.31
2022-11-08T03:42:38.263Z,70.31
2022-11-08T03:43:38.412Z,70.42
2022-11-08T03:44:38.584Z,70.31
2022-11-08T03:45:38.733Z,70.52
2022-11-08T03:46:38.917Z,70.42
2022-11-08T03:47:39.081Z,70.42
2022-11-08T03:48:39.241Z,70.52
2022-11-08T03:49:39.393Z,70.42
2022-11-08T03:50:39.625Z,70.31
2022-11-08T03:51:39.762Z,70.31
2022-11-08T03:52:39.924Z,70.42
2022-11-08T03:53:40.083Z,70.42
2022-11-08T03:54:40.243Z,70.62
2022-11-08T03:55:40.403Z,70.65
2022-11-08T03:56:40.582Z,70.55
2022-11-08T03:57:40.768Z,70.96
2022-11-08T03:58:40.944Z,70.75
2022-11-08T03:59:41.101Z,70.75
2022-11-08T04:00:41.262Z,70.55
2022-11-08T04:01:41.531Z,70.75
2022-11-08T04:02:41.654Z,70.86
2022-11-08T04:03:41.783Z,70.55
2022-11-08T04:04:41.954Z,70.45
2022-11-08T04:05:42.108Z,70.65
2022-11-08T04:06:42.332Z,70.96
2022-11-08T04:07:42.462Z,70.55
2022-11-08T04:08:42.655Z,70.96
2022-11-08T04:09:42.803Z,70.86
2022-11-08T04:10:42.973Z,71.06
2022-11-08T04:11:43.135Z,71.26
2022-11-08T04:12:43.322Z,71.30
2022-11-08T04:13:43.465Z,71.19
2022-11-08T04:14:43.662Z,70.89
2022-11-08T04:15:43.845Z,71.19
2022-11-08T04:16:44.122Z,70.99
2022-11-08T04:17:44.182Z,71.09
2022-11-08T04:18:44.383Z,70.48
2022-11-08T04:19:44.571Z,70.58
2022-11-08T04:20:44.715Z,71.19
2022-11-08T04:21:44.885Z,70.99
2022-11-08T04:22:45.060Z,71.19
2022-11-08T04:23:45.214Z,70.99
2022-11-08T04:24:45.411Z,71.40
2022-11-08T04:25:45.581Z,71.19
2022-11-08T04:26:45.790Z,70.99
2022-11-08T04:27:45.912Z,71.40
2022-11-08T04:28:46.109Z,71.50
2022-11-08T04:29:46.261Z,71.50
2022-11-08T04:30:46.421Z,71.40
2022-11-08T04:31:46.593Z,71.70
2022-11-08T04:32:46.752Z,71.50
2022-11-08T04:33:46.935Z,71.84
2022-11-08T04:34:47.081Z,71.64
2022-11-08T04:35:47.231Z,71.43
2022-11-08T04:36:47.443Z,71.33
2022-11-08T04:37:47.608Z,71.84
2022-11-08T04:38:47.798Z,71.84
2022-11-08T04:39:47.983Z,72.14
2022-11-08T04:40:48.144Z,72.45
2022-11-08T04:41:48.315Z,72.45
2022-11-08T04:42:48.472Z,72.34
2022-11-08T04:43:48.632Z,71.94
2022-11-08T04:44:48.791Z,71.94
2022-11-08T04:45:48.953Z,72.04
2022-11-08T04:46:49.123Z,71.94
2022-11-08T04:47:49.281Z,72.04
2022-11-08T04:48:49.451Z,71.73
2022-11-08T04:49:49.611Z,72.45
2022-11-08T04:50:49.774Z,72.34
2022-11-08T04:51:49.941Z,72.45
2022-11-08T04:52:50.101Z,72.65
2022-11-08T04:53:50.266Z,72.34
2022-11-08T04:54:50.421Z,72.14
2022-11-08T04:55:50.581Z,72.04
2022-11-08T04:56:50.758Z,71.84
2022-11-08T04:57:50.939Z,72.14
2022-11-08T04:58:51.111Z,71.94
2022-11-08T04:59:51.295Z,72.04
2022-11-08T05:00:51.452Z,72.04
2022-11-08T05:01:51.740Z,72.14
2022-11-08T05:02:51.822Z,71.94
2022-11-08T05:03:51.963Z,71.84
2022-11-08T05:04:52.161Z,71.94
2022-11-08T05:05:52.355Z,71.84
2022-11-08T05:06:52.520Z,71.84
2022-11-08T05:07:52.670Z,71.94
2022-11-08T05:08:52.839Z,71.33
2022-11-08T05:09:53.001Z,71.94
2022-11-08T05:10:53.223Z,71.64
2022-11-08T05:11:53.341Z,71.43
2022-11-08T05:12:53.539Z,71.84
2022-11-08T05:13:53.691Z,71.64
2022-11-08T05:14:53.866Z,71.77
2022-11-08T05:15:54.031Z,72.08
2022-11-08T05:16:54.200Z,72.58
2022-11-08T05:17:54.351Z,72.69
2022-11-08T05:18:54.511Z,72.17
2022-11-08T05:19:54.671Z,72.28
2022-11-08T05:20:54.858Z,72.17
2022-11-08T05:21:55.011Z,72.17
2022-11-08T05:22:55.171Z,72.58
2022-11-08T05:23:55.331Z,72.48
2022-11-08T05:24:55.502Z,72.38
2022-11-08T05:25:55.660Z,72.08
2022-11-08T05:26:55.834Z,72.17
2022-11-08T05:27:55.991Z,72.38
2022-11-08T05:28:56.181Z,72.58
2022-11-08T05:29:56.340Z,72.28
2022-11-08T05:30:56.553Z,72.48
2022-11-08T05:31:56.675Z,72.78
2022-11-08T05:32:56.861Z,73.19
2022-11-08T05:33:57.020Z,73.19
2022-11-08T05:34:57.221Z,73.19
2022-11-08T05:36:00.010Z,72.89
2022-11-08T05:36:57.560Z,72.99
2022-11-08T05:37:57.720Z,73.30
2022-11-08T05:38:57.891Z,73.60
2022-11-08T05:39:58.050Z,73.30
2022-11-08T05:40:58.241Z,73.10
2022-11-08T05:41:58.371Z,73.40
2022-11-08T05:42:58.530Z,73.50
2022-11-08T05:43:58.689Z,73.10
2022-11-08T05:44:58.863Z,72.89
2022-11-08T05:45:59.028Z,72.99
2022-11-08T05:46:59.191Z,72.89
2022-11-08T05:47:59.352Z,72.99
2022-11-08T05:48:59.535Z,73.23
2022-11-08T05:49:59.691Z,72.89
2022-11-08T05:50:59.862Z,72.99
2022-11-08T05:52:00.023Z,72.89
2022-11-08T05:53:00.203Z,72.92
2022-11-08T05:54:00.379Z,72.62
2022-11-08T05:55:00.553Z,72.82
2022-11-08T05:56:00.753Z,73.33
2022-11-08T05:57:00.903Z,72.82
2022-11-08T05:58:01.080Z,72.62
2022-11-08T05:59:01.265Z,72.82
2022-11-08T06:00:01.441Z,73.33
2022-11-08T06:01:01.640Z,73.23
2022-11-08T06:02:01.836Z,72.82
2022-11-08T06:03:02.030Z,72.41
2022-11-08T06:04:02.109Z,72.82
2022-11-08T06:05:02.292Z,73.02
2022-11-08T06:06:02.512Z,73.23
2022-11-08T06:07:02.723Z,73.23
2022-11-08T06:08:02.842Z,73.23
2022-11-08T06:09:03.012Z,73.23
2022-11-08T06:10:03.180Z,73.13
2022-11-08T06:11:03.369Z,73.13
2022-11-08T06:12:03.562Z,72.92
2022-11-08T06:13:03.732Z,73.33
2022-11-08T06:14:03.877Z,72.72
2022-11-08T06:15:04.030Z,72.21
2022-11-08T06:16:04.189Z,73.13
2022-11-08T06:17:04.412Z,73.13
2022-11-08T06:18:04.529Z,72.62
2022-11-08T06:19:04.781Z,72.72
2022-11-08T06:20:04.870Z,72.92
2022-11-08T06:21:05.108Z,72.82
2022-11-08T06:22:05.240Z,72.62
2022-11-08T06:23:05.422Z,73.47
2022-11-08T06:24:05.610Z,72.75
2022-11-08T06:25:05.804Z,73.16
2022-11-08T06:26:05.961Z,73.06
2022-11-08T06:27:06.132Z,72.55
2022-11-08T06:28:06.271Z,72.31
2022-11-08T06:29:07.447Z,72.41
2022-11-08T06:30:06.620Z,72.21
2022-11-08T06:31:06.799Z,72.11
2022-11-08T06:32:06.939Z,72.11
2022-11-08T06:33:08.078Z,71.91
2022-11-08T06:34:07.342Z,72.01
2022-11-08T06:35:07.478Z,72.21
2022-11-08T06:36:07.679Z,72.01
2022-11-08T06:37:08.827Z,72.52
2022-11-08T06:38:09.533Z,72.82
2022-11-08T06:39:08.198Z,72.11
2022-11-08T06:40:08.389Z,72.92
2022-11-08T06:41:08.538Z,72.01
2022-11-08T06:42:08.678Z,72.11
2022-11-08T06:43:08.877Z,71.91
2022-11-08T06:44:09.054Z,72.21
2022-11-08T06:45:09.237Z,72.62
2022-11-08T06:46:09.471Z,72.82
2022-11-08T06:47:09.617Z,73.02
2022-11-08T06:48:09.769Z,72.92
2022-11-08T06:49:10.003Z,73.26
2022-11-08T06:50:10.165Z,73.26
2022-11-08T06:51:10.333Z,73.57
2022-11-08T06:52:10.481Z,73.06
2022-11-08T06:53:10.659Z,73.67
2022-11-08T06:54:14.236Z,73.67
2022-11-08T06:55:12.027Z,73.77
2022-11-08T06:56:11.227Z,73.16
2022-11-08T06:57:11.348Z,73.06
2022-11-08T06:58:11.533Z,73.16
2022-11-08T06:59:11.697Z,73.06
2022-11-08T07:00:11.876Z,72.92
2022-11-08T07:01:12.149Z,72.72
2022-11-08T07:02:12.288Z,72.72
2022-11-08T07:03:12.484Z,72.31
2022-11-08T07:04:12.635Z,72.21
2022-11-08T07:05:12.800Z,72.72
2022-11-08T07:06:12.968Z,72.92
2022-11-08T07:07:13.110Z,73.02
2022-11-08T07:08:13.309Z,72.41
2022-11-08T07:09:13.479Z,72.72
2022-11-08T07:10:13.644Z,72.82
2022-11-08T07:11:13.800Z,73.13
2022-11-08T07:12:13.939Z,73.02
2022-11-08T07:13:14.119Z,73.13
2022-11-08T07:14:14.287Z,72.92
2022-11-08T07:15:14.488Z,72.62
2022-11-08T07:16:14.709Z,72.72
2022-11-08T07:17:14.819Z,72.82
2022-11-08T07:18:15.080Z,72.92
2022-11-08T07:19:15.186Z,72.52
2022-11-08T07:20:15.388Z,72.28
2022-11-08T07:21:15.530Z,72.48
2022-11-08T07:22:15.750Z,72.28
2022-11-08T07:23:15.886Z,72.17
2022-11-08T07:24:16.068Z,72.28
2022-11-08T07:25:16.238Z,72.28
2022-11-08T07:26:16.399Z,72.28
2022-11-08T07:27:16.563Z,72.17
2022-11-08T07:28:16.752Z,72.28
2022-11-08T07:29:16.898Z,71.84
2022-11-08T07:30:17.107Z,71.73
2022-11-08T07:31:17.250Z,71.84
2022-11-08T07:32:17.397Z,71.73
2022-11-08T07:33:18.175Z,71.64
2022-11-08T07:34:17.776Z,71.53
2022-11-08T07:35:17.968Z,71.70
2022-11-08T07:36:18.162Z,71.60
2022-11-08T07:37:18.297Z,71.40
2022-11-08T07:38:18.490Z,71.50
2022-11-08T07:39:18.652Z,71.50
2022-11-08T07:40:18.883Z,71.26
2022-11-08T07:41:18.979Z,70.96
2022-11-08T07:42:19.167Z,70.75
2022-11-08T07:43:19.348Z,70.65
2022-11-08T07:44:19.540Z,70.52
2022-11-08T07:45:19.776Z,70.52
2022-11-08T07:46:19.885Z,70.31
2022-11-08T07:47:20.067Z,70.31
2022-11-08T07:48:20.256Z,70.01
2022-11-08T07:49:20.408Z,69.87
2022-11-08T07:50:20.628Z,69.78
2022-11-08T07:51:20.750Z,69.54
2022-11-08T07:52:20.937Z,69.64
2022-11-08T07:53:21.295Z,69.34
2022-11-08T07:54:21.316Z,69.00
2022-11-08T07:55:21.545Z,68.70
2022-11-08T07:56:21.646Z,68.39
2022-11-08T07:57:21.818Z,68.15
2022-11-08T07:58:22.035Z,67.61
2022-11-08T07:59:22.184Z,67.28
2022-11-08T08:00:22.329Z,66.57
2022-11-08T08:01:22.518Z,65.93
2022-11-08T08:02:22.744Z,65.80
2022-11-08T08:03:23.404Z,64.62
2022-11-08T08:04:23.052Z,63.25
2022-11-08T08:05:23.217Z,61.98
2022-11-08T08:06:23.401Z,60.74
2022-11-08T08:07:23.558Z,60.71
2022-11-08T08:08:23.745Z,59.60
2022-11-08T08:09:23.927Z,59.57
2022-11-08T08:10:24.117Z,58.74
2022-11-08T08:11:27.127Z,58.71
2022-11-08T08:12:25.459Z,57.07
2022-11-08T08:13:24.615Z,56.51
2022-11-08T08:14:24.797Z,55.79
2022-11-08T08:15:24.967Z,55.46
2022-11-08T08:16:25.128Z,54.50
2022-11-08T08:17:25.287Z,53.17
2022-11-08T08:18:25.488Z,52.72
2022-11-08T08:19:25.667Z,51.57
2022-11-08T08:20:25.809Z,50.42
2022-11-08T08:21:25.958Z,49.49
2022-11-08T08:22:26.138Z,49.27
2022-11-08T08:23:26.326Z,48.32
2022-11-08T08:24:26.541Z,47.08
2022-11-08T08:25:26.669Z,46.24
2022-11-08T08:26:26.862Z,44.50
2022-11-08T08:27:27.009Z,43.88
2022-11-08T08:28:27.189Z,43.54
2022-11-08T08:29:27.355Z,42.91
2022-11-08T08:30:27.531Z,41.17
2022-11-08T08:31:27.689Z,40.66
2022-11-08T08:32:31.429Z,40.84
2022-11-08T08:33:34.209Z,40.23
2022-11-08T08:34:29.239Z,39.42
2022-11-08T08:35:28.370Z,39.40
2022-11-08T08:36:28.541Z,38.70
2022-11-08T08:37:28.728Z,38.78
2022-11-08T08:38:28.890Z,38.68
2022-11-08T08:39:29.071Z,38.67
2022-11-08T08:40:29.242Z,37.68
2022-11-08T08:41:29.436Z,38.06
2022-11-08T08:42:29.726Z,37.54
2022-11-08T08:43:29.762Z,37.45
2022-11-08T08:44:29.943Z,37.13
2022-11-08T08:45:30.114Z,36.46
2022-11-08T08:46:30.282Z,37.24
2022-11-08T08:47:30.451Z,37.15
2022-11-08T08:48:30.632Z,37.23
2022-11-08T08:49:30.812Z,37.11
2022-11-08T08:50:31.012Z,36.70
2022-11-08T08:51:31.169Z,36.58
2022-11-08T08:52:31.354Z,36.07
2022-11-08T08:53:31.492Z,35.08
2022-11-08T08:54:31.702Z,34.89
2022-11-08T08:55:31.854Z,34.89
2022-11-08T08:56:32.043Z,34.77
2022-11-08T08:57:32.194Z,34.36
2022-11-08T08:58:32.531Z,34.27
2022-11-08T09:02:33.074Z,33.95
2022-11-08T09:03:33.234Z,34.27
2022-11-08T09:04:33.426Z,34.69
2022-11-08T09:05:33.572Z,34.89
2022-11-08T09:06:33.780Z,35.38
2022-11-08T09:07:33.924Z,35.28
2022-11-08T09:08:34.065Z,35.48
2022-11-08T09:09:34.277Z,35.28
2022-11-08T09:10:34.436Z,35.68
2022-11-08T09:11:34.637Z,34.69
2022-11-08T09:12:34.812Z,35.30
2022-11-08T09:13:34.944Z,35.33
2022-11-08T09:14:35.137Z,35.85
2022-11-08T09:15:35.326Z,36.85
2022-11-08T09:16:35.475Z,37.15
2022-11-08T09:17:35.647Z,37.15
2022-11-08T09:18:35.867Z,37.66
2022-11-08T09:19:36.035Z,38.37
2022-11-08T09:20:36.207Z,38.70
2022-11-08T09:21:36.445Z,39.31
2022-11-08T09:22:36.565Z,39.15
2022-11-08T09:23:36.756Z,39.89
2022-11-08T09:24:36.951Z,40.80
2022-11-08T09:25:37.087Z,41.63
2022-11-08T09:26:37.275Z,42.35
2022-11-08T09:27:37.448Z,43.16
2022-11-08T09:28:37.627Z,43.68
2022-11-08T09:29:37.824Z,43.60
2022-11-08T09:30:37.977Z,44.50
2022-11-08T09:31:38.179Z,44.32
2022-11-08T09:33:39.509Z,45.36
2022-11-08T09:34:38.697Z,46.08
2022-11-08T09:35:38.837Z,45.68
2022-11-08T09:36:39.019Z,46.11
2022-11-08T09:37:39.229Z,46.92
2022-11-08T09:38:39.351Z,46.95
2022-11-08T09:39:39.603Z,47.45
2022-11-08T09:40:39.729Z,47.47
2022-11-08T09:41:39.909Z,48.37
2022-11-08T09:42:40.091Z,48.69
2022-11-08T09:43:40.268Z,48.69
2022-11-08T09:44:40.469Z,48.92
2022-11-08T09:45:40.619Z,49.52
2022-11-08T09:46:40.810Z,50.04
2022-11-08T09:47:40.989Z,50.44
2022-11-08T09:48:41.195Z,50.84
2022-11-08T09:49:41.372Z,50.76
2022-11-08T09:50:41.553Z,50.57
2022-11-08T09:51:41.689Z,50.37
2022-11-08T09:52:41.887Z,50.69
2022-11-08T09:53:42.040Z,51.09
2022-11-08T09:54:42.240Z,51.19
2022-11-08T09:55:42.479Z,51.69
2022-11-08T09:56:42.580Z,51.42
2022-11-08T09:57:42.780Z,51.72
2022-11-08T09:58:42.929Z,51.72
2022-11-08T09:59:43.140Z,51.72
2022-11-08T10:00:43.291Z,51.84
2022-11-08T10:01:43.448Z,52.55
2022-11-08T10:02:43.608Z,52.55
2022-11-08T10:03:43.818Z,53.05
2022-11-08T10:04:43.979Z,52.14
2022-11-08T10:05:44.112Z,52.24
2022-11-08T10:06:44.362Z,52.55
2022-11-08T10:07:44.480Z,52.62
2022-11-08T10:08:44.682Z,52.34
2022-11-08T10:09:44.852Z,52.64
2022-11-08T10:10:45.033Z,52.84
2022-11-08T10:11:45.223Z,53.02
2022-11-08T10:12:45.401Z,52.55
2022-11-08T10:13:45.624Z,52.64
2022-11-08T10:14:53.390Z,52.84
2022-11-08T10:15:46.965Z,52.94
2022-11-08T10:16:46.114Z,53.05
2022-11-08T10:17:46.291Z,52.84
2022-11-08T10:18:46.492Z,53.25
2022-11-08T10:19:46.673Z,53.45
2022-11-08T10:20:46.822Z,53.75
2022-11-08T10:21:46.961Z,53.55
2022-11-08T10:22:47.145Z,53.62
2022-11-08T10:23:47.355Z,53.02
2022-11-08T10:24:47.504Z,53.32
2022-11-08T10:25:47.652Z,52.62
2022-11-08T10:26:47.839Z,52.42
2022-11-08T10:27:47.993Z,52.92
2022-11-08T10:28:48.143Z,52.12
2022-11-08T10:29:48.302Z,52.92
2022-11-08T10:30:48.510Z,52.52
2022-11-08T10:31:48.623Z,53.05
2022-11-08T10:32:48.843Z,53.22
2022-11-08T10:33:48.982Z,53.02
2022-11-08T10:34:49.172Z,53.22
2022-11-08T10:35:49.343Z,53.02
2022-11-08T10:36:49.532Z,53.12
2022-11-08T10:37:49.703Z,52.62
2022-11-08T10:38:49.902Z,52.52
2022-11-08T10:39:50.074Z,52.92
2022-11-08T10:40:50.297Z,52.82
2022-11-08T10:41:50.414Z,53.02
2022-11-08T10:42:50.593Z,53.02
2022-11-08T10:43:50.794Z,52.72
2022-11-08T10:44:50.977Z,53.52
2022-11-08T10:45:51.105Z,53.42
2022-11-08T10:46:51.282Z,53.02
2022-11-08T10:47:51.475Z,53.02
2022-11-08T10:48:51.663Z,53.42
2022-11-08T10:49:51.804Z,53.14
2022-11-08T10:50:52.004Z,53.14
2022-11-08T10:51:52.166Z,53.34
2022-11-08T10:52:52.360Z,53.64
2022-11-08T10:53:52.574Z,53.75
2022-11-08T10:54:52.727Z,53.05
2022-11-08T10:55:52.925Z,53.45
2022-11-08T10:56:53.094Z,53.85
2022-11-08T10:57:53.274Z,53.85
2022-11-08T10:58:53.485Z,53.85
2022-11-08T10:59:53.625Z,54.05
2022-11-08T11:00:53.806Z,54.07
2022-11-08T11:01:54.027Z,53.97
2022-11-08T11:02:54.155Z,54.07
2022-11-08T11:03:54.355Z,53.97
2022-11-08T11:04:54.525Z,53.67
2022-11-08T11:05:54.675Z,53.97
2022-11-08T11:06:54.903Z,54.17
2022-11-08T11:08:00.611Z,54.38
2022-11-08T11:08:56.247Z,54.00
2022-11-08T11:09:55.396Z,54.20
2022-11-08T11:10:55.587Z,54.40
2022-11-08T11:11:55.804Z,53.70
2022-11-08T11:12:55.946Z,54.20
2022-11-08T11:13:56.141Z,54.20
2022-11-08T11:14:56.289Z,54.40
2022-11-08T11:15:56.468Z,54.13
2022-11-08T11:16:56.683Z,54.83
2022-11-08T11:17:56.805Z,54.72
2022-11-08T11:18:56.997Z,54.83
2022-11-08T11:19:57.155Z,54.72
2022-11-08T11:20:57.342Z,54.53
2022-11-08T11:21:57.506Z,54.63
2022-11-08T11:22:57.696Z,54.93
2022-11-08T11:23:57.887Z,54.83
2022-11-08T11:24:58.086Z,54.93
2022-11-08T11:25:58.248Z,54.63
2022-11-08T11:26:58.417Z,54.83
2022-11-08T11:27:58.616Z,55.23
2022-11-08T11:28:58.807Z,55.23
2022-11-08T11:29:58.947Z,55.13
2022-11-08T11:30:59.146Z,54.93
2022-11-08T11:31:59.287Z,55.13
2022-11-08T11:32:59.479Z,54.70
2022-11-08T11:33:59.659Z,55.00
2022-11-08T11:34:59.808Z,54.70
2022-11-08T11:35:59.988Z,55.10
2022-11-08T11:37:00.167Z,54.60
2022-11-08T11:38:00.348Z,54.50
2022-11-08T11:39:00.561Z,54.90
2022-11-08T11:40:00.698Z,54.70
2022-11-08T11:41:00.963Z,53.90
2022-11-08T11:42:17.854Z,54.00
2022-11-08T11:43:02.237Z,54.20
2022-11-08T11:44:01.437Z,54.20
2022-11-08T11:45:01.580Z,53.70
2022-11-08T11:46:01.758Z,53.80
2022-11-08T11:47:01.967Z,53.97
2022-11-08T11:48:02.108Z,53.67
2022-11-08T11:49:02.320Z,53.47
2022-11-08T11:50:02.475Z,53.47
2022-11-08T11:51:02.732Z,53.27
2022-11-08T11:52:02.812Z,52.37
2022-11-08T11:53:02.969Z,52.84
2022-11-08T11:54:03.170Z,52.24
2022-11-08T11:55:03.338Z,51.87
2022-11-08T11:56:03.562Z,52.47
2022-11-08T11:57:03.719Z,52.57
2022-11-08T11:58:03.880Z,52.47
2022-11-08T11:59:04.104Z,52.44
2022-11-08T12:00:04.217Z,52.64
2022-11-08T12:01:04.368Z,52.44
2022-11-08T12:02:04.580Z,52.34
2022-11-08T12:03:04.729Z,52.55
2022-11-08T12:04:04.945Z,52.34
2022-11-08T12:05:05.082Z,52.04
2022-11-08T12:06:05.269Z,52.14
2022-11-08T12:07:05.925Z,51.74
2022-11-08T12:08:05.638Z,52.24
2022-11-08T12:09:05.839Z,52.14
2022-11-08T12:10:05.988Z,51.67
2022-11-08T12:11:06.172Z,51.97
2022-11-08T12:12:06.348Z,52.17
2022-11-08T12:13:06.541Z,52.17
2022-11-08T12:14:06.699Z,51.97
2022-11-08T12:15:06.840Z,51.76
2022-11-08T12:16:07.052Z,51.97
2022-11-08T12:17:07.183Z,51.87
2022-11-08T12:18:07.362Z,52.26
2022-11-08T12:19:07.510Z,51.56
2022-11-08T12:20:07.700Z,52.37
2022-11-08T12:21:07.901Z,51.74
2022-11-08T12:22:08.040Z,52.14
2022-11-08T12:23:08.251Z,51.64
2022-11-08T12:24:08.398Z,51.44
2022-11-08T12:25:08.570Z,51.84
2022-11-08T12:26:08.751Z,51.24
2022-11-08T12:27:08.931Z,51.84
2022-11-08T12:28:09.128Z,51.82
2022-11-08T12:29:09.280Z,51.32
2022-11-08T12:30:09.430Z,51.21
2022-11-08T12:31:09.632Z,51.21
2022-11-08T12:32:09.800Z,51.42
2022-11-08T12:33:10.013Z,51.12
2022-11-08T12:34:10.152Z,51.32
2022-11-08T12:35:10.332Z,51.62
2022-11-08T12:36:10.522Z,51.12
2022-11-08T12:37:10.691Z,51.21
2022-11-08T12:38:10.862Z,51.21
2022-11-08T12:39:11.001Z,51.32
2022-11-08T12:40:11.240Z,51.62
2022-11-08T12:41:11.352Z,51.12
2022-11-08T12:42:11.534Z,51.51
2022-11-08T12:43:11.724Z,51.21
2022-11-08T12:44:11.913Z,51.62
2022-11-08T12:45:12.096Z,51.62
2022-11-08T12:46:12.283Z,51.32
2022-11-08T12:47:12.462Z,51.62
2022-11-08T12:48:12.662Z,51.21
2022-11-08T12:49:12.843Z,51.21
2022-11-08T12:50:13.047Z,51.12
2022-11-08T12:51:13.184Z,51.44
2022-11-08T12:52:13.363Z,51.14
2022-11-08T12:53:13.552Z,50.94
2022-11-08T12:54:13.692Z,51.74
2022-11-08T12:55:13.873Z,51.34
2022-11-08T12:56:14.055Z,51.84
2022-11-08T12:57:14.212Z,51.64
2022-11-08T12:58:14.407Z,51.76